Time;durP1;ratioP1;P1;durP2;ratioP2;P2;SDS_P1;SDS_P2;PMS_P1;PMS_P2;Temp;Humidity;BMP_temperature;BMP_pressure;BME280_temperature;BME280_humidity;BME280_pressure;Samples;Min_cycle;Max_cycle;Signal;HPM_P1;HPM_P2
2022/05/14 00:01:15;;;;;;;4.80;3.75;;;;;;;24.15;38.29;100856.28;5104819;28;20483;-74
2022/05/14 00:03:42;;;;;;;5.88;3.97;;;;;;;24.13;38.25;100847.59;5105358;28;20494;-74
2022/05/14 00:08:10;;;;;;;7.95;4.03;;;;;;;24.12;38.80;100853.28;5072941;28;20878;-75
2022/05/14 00:13:03;;;;;;;6.38;3.95;;;;;;;24.11;38.84;100854.34;5066797;28;20909;-74
2022/05/14 00:13:25;;;;;;;5.43;4.32;;;;;;;24.02;38.98;100852.13;5066803;28;20415;-74
2022/05/14 00:15:52;;;;;;;5.93;3.90;;;;;;;23.95;38.79;100842.53;5067361;28;20462;-75
2022/05/14 00:18:21;;;;;;;6.75;4.45;;;;;;;23.94;38.72;100841.72;5066642;28;20419;-74
2022/05/14 00:20:48;;;;;;;4.65;4.22;;;;;;;23.97;39.09;100841.22;5066900;28;20415;-75
2022/05/14 00:23:16;;;;;;;5.75;4.25;;;;;;;23.99;39.17;100841.78;5065131;28;20502;-75
2022/05/14 00:25:43;;;;;;;6.90;4.32;;;;;;;24.01;39.23;100841.53;5066820;28;20484;-75
2022/05/14 00:28:11;;;;;;;5.05;4.30;;;;;;;23.99;39.34;100840.97;5064864;28;20427;-74
2022/05/14 00:30:38;;;;;;;5.32;4.30;;;;;;;23.98;39.15;100833.91;5066398;28;20495;-74
2022/05/14 00:33:06;;;;;;;7.18;4.60;;;;;;;23.99;39.02;100838.28;5064938;28;20817;-74
2022/05/14 00:35:33;;;;;;;7.63;4.60;;;;;;;23.94;39.10;100847.16;5066482;28;20440;-74
2022/05/14 00:38:01;;;;;;;4.95;4.38;;;;;;;23.86;39.30;100850.34;5066254;28;20422;-74
2022/05/14 00:40:36;;;;;;;7.28;4.28;;;;;;;23.88;39.54;100841.94;5066158;28;20407;-75
2022/05/14 00:43:04;;;;;;;5.77;4.53;;;;;;;23.89;39.48;100843.56;5066455;28;20503;-74
2022/05/14 00:45:34;;;;;;;4.93;4.20;;;;;;;23.88;39.67;100848.19;5066052;28;20995;-74
2022/05/14 00:48:02;;;;;;;6.03;4.10;;;;;;;23.82;39.72;100851.88;5066219;28;20446;-74
2022/05/14 00:50:37;;;;;;;7.15;4.35;;;;;;;23.78;39.45;100838.03;5066275;28;20419;-74
2022/05/14 00:53:08;;;;;;;4.72;4.30;;;;;;;23.75;39.72;100845.84;5065919;28;20412;-74
2022/05/14 00:55:37;;;;;;;5.68;4.20;;;;;;;23.71;39.79;100837.41;5066168;28;20495;-74
2022/05/14 00:58:06;;;;;;;6.10;4.60;;;;;;;23.65;39.87;100841.94;5064939;28;20465;-74
2022/05/14 01:00:33;;;;;;;7.32;4.38;;;;;;;23.61;40.28;100840.84;5065738;28;20499;-74
2022/05/14 01:03:00;;;;;;;4.90;4.50;;;;;;;23.57;40.10;100844.28;5064078;28;20435;-74
2022/05/14 01:05:27;;;;;;;7.68;4.82;;;;;;;23.55;40.53;100843.72;5065773;28;20959;-75
2022/05/14 01:07:56;;;;;;;5.90;4.75;;;;;;;23.52;40.48;100841.53;5064453;28;20440;-75
2022/05/14 01:10:29;;;;;;;4.93;4.40;;;;;;;23.46;40.69;100833.38;5065911;28;20514;-74
2022/05/14 01:13:01;;;;;;;5.78;5.18;;;;;;;23.43;40.73;100831.16;5064130;28;20503;-75
2022/05/14 01:15:40;;;;;;;6.80;4.78;;;;;;;23.37;40.86;100829.47;5065405;28;20419;-74
2022/05/14 01:18:07;;;;;;;6.80;4.80;;;;;;;23.36;41.19;100827.84;5060037;28;20499;-74
2022/05/14 01:20:35;;;;;;;7.88;5.20;;;;;;;23.31;41.39;100833.16;5051291;28;20877;-74
2022/05/14 01:23:12;;;;;;;6.63;5.22;;;;;;;23.30;41.41;100828.84;5052120;28;20466;-75
2022/05/14 01:28:31;;;;;;;6.10;4.95;;;;;;;23.29;41.45;100830.72;5052159;28;20415;-75
2022/05/14 01:31:00;;;;;;;7.88;5.40;;;;;;;23.26;41.43;100830.41;5052058;28;20503;-74
2022/05/14 01:33:29;;;;;;;6.20;5.13;;;;;;;23.25;41.62;100832.28;5050402;28;20875;-74
2022/05/14 01:35:56;;;;;;;6.43;5.38;;;;;;;23.25;41.62;100820.66;5052396;28;20425;-74
2022/05/14 01:38:24;;;;;;;6.63;5.30;;;;;;;23.25;41.53;100809.84;5051866;28;20419;-75
2022/05/14 01:40:51;;;;;;;6.93;5.40;;;;;;;23.25;41.29;100807.97;5051759;28;20504;-74
2022/05/14 01:43:19;;;;;;;9.43;5.90;;;;;;;23.27;41.72;100810.41;5049893;28;20511;-75
2022/05/14 01:45:47;;;;;;;7.85;5.93;;;;;;;23.25;41.75;100804.44;5052081;28;20495;-74
2022/05/14 01:48:14;;;;;;;8.05;5.57;;;;;;;23.27;41.65;100802.31;5051712;28;20858;-75
2022/05/14 01:50:42;;;;;;;7.07;5.40;;;;;;;23.23;41.76;100810.09;5051646;28;20423;-74
2022/05/14 01:53:09;;;;;;;9.35;5.70;;;;;;;23.23;41.85;100815.50;5049990;28;20420;-74
2022/05/14 01:55:36;;;;;;;7.57;5.72;;;;;;;23.21;41.56;100833.03;5051524;28;20495;-74
2022/05/14 01:58:36;;;;;;;7.68;5.50;;;;;;;23.22;41.87;100827.38;5050232;28;20869;-74
2022/05/14 02:00:54;;;;;;;10.40;5.30;;;;;;;23.17;41.60;100826.50;5051140;28;20413;-74
2022/05/14 02:03:21;;;;;;;7.25;5.32;;;;;;;23.19;41.86;100827.06;5049461;28;20549;-74
2022/05/14 02:05:48;;;;;;;7.87;5.53;;;;;;;23.20;41.76;100828.72;5051215;28;20466;-74
2022/05/14 02:09:17;;;;;;;7.85;5.25;;;;;;;23.19;41.59;100818.97;5104017;27;2069873;-72
2022/05/14 02:11:44;;;;;;;8.45;5.78;;;;;;;23.15;41.70;100815.13;5147011;27;20405;-72
2022/05/14 02:14:13;;;;;;;9.02;5.30;;;;;;;23.06;41.88;100823.66;5146164;27;20858;-72
2022/05/14 02:16:40;;;;;;;8.48;5.60;;;;;;;22.99;41.87;100819.50;5148391;27;20410;-72
2022/05/14 02:19:07;;;;;;;7.10;5.50;;;;;;;22.91;42.20;100818.84;5145540;27;20417;-73
2022/05/14 02:21:36;;;;;;;7.30;5.55;;;;;;;22.89;42.02;100815.59;5148208;27;20497;-73
2022/05/14 02:24:04;;;;;;;8.30;5.72;;;;;;;22.88;42.36;100821.22;5148387;27;20530;-73
2022/05/14 02:26:32;;;;;;;7.00;6.10;;;;;;;22.87;42.33;100811.50;5145881;27;20499;-72
2022/05/14 02:28:59;;;;;;;7.50;5.80;;;;;;;22.84;42.16;100814.69;5146152;27;20421;-72
2022/05/14 02:31:27;;;;;;;6.90;6.00;;;;;;;22.83;42.49;100811.19;5148120;27;20492;-72
2022/05/14 02:33:54;;;;;;;6.70;5.75;;;;;;;22.82;42.24;100817.66;5148400;27;20441;-72
2022/05/14 02:36:21;;;;;;;10.50;5.85;;;;;;;22.82;42.17;100809.53;5144407;27;20504;-72
2022/05/14 02:38:48;;;;;;;6.72;5.80;;;;;;;22.86;42.31;100812.56;5148167;27;20441;-73
2022/05/14 02:41:15;;;;;;;7.93;5.78;;;;;;;22.85;41.97;100814.47;5147645;27;20401;-72
2022/05/14 02:43:44;;;;;;;8.48;5.85;;;;;;;22.86;41.92;100813.38;5148214;27;20401;-72
2022/05/14 02:46:12;;;;;;;8.75;5.97;;;;;;;22.83;42.06;100813.88;5147800;27;20496;-73
2022/05/14 02:48:39;;;;;;;6.93;5.90;;;;;;;22.89;41.98;100822.88;5148386;27;20425;-72
2022/05/14 02:51:06;;;;;;;9.30;6.30;;;;;;;22.86;41.84;100821.47;5147978;27;20424;-72
2022/05/14 02:53:34;;;;;;;9.20;5.90;;;;;;;22.89;41.96;100812.88;5146133;27;20423;-72
2022/05/14 02:56:01;;;;;;;7.72;5.70;;;;;;;22.93;41.68;100817.78;5147498;27;20416;-72
2022/05/14 03:01:14;;;;;;;10.15;5.80;;;;;;;22.96;42.01;100818.13;5147663;27;20500;-73
2022/05/14 03:03:42;;;;;;;6.80;5.50;;;;;;;22.99;41.78;100814.88;5147474;27;20411;-72
2022/05/14 03:06:09;;;;;;;7.30;5.60;;;;;;;23.02;41.90;100811.69;5145359;27;20434;-72
2022/05/14 03:08:37;;;;;;;6.55;5.60;;;;;;;23.05;41.80;100813.94;5144944;27;20512;-72
2022/05/14 03:11:04;;;;;;;7.25;5.60;;;;;;;23.07;41.86;100810.97;5145108;27;20424;-72
2022/05/14 03:13:31;;;;;;;9.17;5.67;;;;;;;23.14;41.58;100819.72;5146734;27;20907;-72
2022/05/14 03:15:58;;;;;;;9.27;5.93;;;;;;;23.20;41.15;100816.00;5146426;27;20791;-72
2022/05/14 03:18:26;;;;;;;6.40;5.75;;;;;;;23.25;41.34;100818.78;5146473;27;20488;-73
2022/05/14 03:20:53;;;;;;;9.53;5.83;;;;;;;23.29;41.18;100814.50;5132755;27;20409;-72
2022/05/14 03:23:20;;;;;;;7.07;5.22;;;;;;;23.35;40.93;100817.25;5133280;27;20492;-72
2022/05/14 03:25:47;;;;;;;7.13;5.53;;;;;;;23.39;41.07;100818.38;5131580;27;20501;-72
2022/05/14 03:28:14;;;;;;;9.30;5.63;;;;;;;23.46;40.48;100827.97;5133377;27;20428;-73
2022/05/14 03:30:41;;;;;;;10.03;5.40;;;;;;;23.51;40.75;100829.06;5130388;27;20874;-72
2022/05/14 03:33:08;;;;;;;7.07;5.35;;;;;;;23.61;40.29;100831.91;5133156;27;20489;-72
2022/05/14 03:35:36;;;;;;;7.18;5.40;;;;;;;23.75;40.35;100843.13;5133064;27;20524;-72
2022/05/14 03:38:03;;;;;;;5.90;5.30;;;;;;;23.84;40.24;100839.75;5130139;27;20794;-72
2022/05/14 03:40:30;;;;;;;12.13;5.78;;;;;;;23.97;39.74;100837.72;5133465;27;20493;-73
2022/05/14 03:42:57;;;;;;;8.50;5.32;;;;;;;24.05;39.85;100842.66;5132825;27;20409;-72
2022/05/14 03:45:24;;;;;;;8.23;5.40;;;;;;;24.11;39.79;100848.91;5132304;27;20496;-72
2022/05/14 03:47:51;;;;;;;9.80;5.63;;;;;;;24.20;39.67;100852.78;5132994;27;20504;-72
2022/05/14 03:50:18;;;;;;;9.48;5.53;;;;;;;24.34;39.44;100847.78;5132831;27;20496;-72
2022/05/14 03:52:47;;;;;;;8.90;5.90;;;;;;;24.57;38.89;100858.28;5132739;27;20500;-72
2022/05/14 03:55:14;;;;;;;8.60;5.70;;;;;;;24.78;38.49;100861.13;5132718;27;20492;-72
2022/05/14 03:57:41;;;;;;;8.43;6.05;;;;;;;25.01;38.21;100865.31;5132530;27;20417;-72
2022/05/14 04:00:11;;;;;;;8.80;5.80;;;;;;;25.19;37.91;100859.47;5132477;27;20488;-73
2022/05/14 04:02:38;;;;;;;8.52;5.68;;;;;;;25.38;37.33;100867.97;5080570;27;20402;-72
2022/05/14 04:05:06;;;;;;;7.97;5.50;;;;;;;25.64;36.95;100857.22;5132816;27;20417;-72
2022/05/14 04:07:33;;;;;;;7.68;5.47;;;;;;;25.92;36.63;100874.09;5131880;27;20448;-73
2022/05/14 04:10:01;;;;;;;5.90;5.10;;;;;;;26.07;36.11;100874.19;5132472;27;20409;-73
2022/05/14 04:12:28;;;;;;;7.43;5.03;;;;;;;26.39;35.89;100892.09;5136939;27;20473;-72
2022/05/14 04:14:55;;;;;;;6.82;5.18;;;;;;;26.69;35.40;100882.34;5137932;27;20925;-72
2022/05/14 04:17:22;;;;;;;6.10;4.78;;;;;;;27.03;34.52;100882.53;5133210;27;20481;-73
2022/05/14 04:19:50;;;;;;;9.88;5.00;;;;;;;27.37;34.30;100883.81;5132317;27;20854;-73
2022/05/14 04:22:17;;;;;;;7.63;5.40;;;;;;;27.69;33.58;100886.09;5132515;27;20410;-72
2022/05/14 04:24:44;;;;;;;5.38;4.80;;;;;;;28.06;33.31;100878.56;5132443;27;20771;-72
2022/05/14 04:27:12;;;;;;;8.17;4.77;;;;;;;28.51;32.45;100884.75;5131585;27;20538;-72
2022/05/14 04:29:39;;;;;;;7.18;4.82;;;;;;;28.97;31.60;100889.75;5130586;27;20425;-72
2022/05/14 04:32:08;;;;;;;8.57;5.05;;;;;;;29.47;30.83;100884.03;5130067;27;20508;-73
2022/05/14 04:34:34;;;;;;;6.35;4.70;;;;;;;29.92;30.31;100885.31;5131958;27;20416;-73
2022/05/14 04:37:01;;;;;;;5.72;4.60;;;;;;;30.42;29.55;100890.31;5132257;27;20420;-73
2022/05/14 04:39:32;;;;;;;7.78;4.30;;;;;;;30.81;29.07;100889.09;5132096;27;20420;-73
2022/05/14 04:42:00;;;;;;;12.43;4.80;;;;;;;31.33;28.29;100899.03;5131410;27;20788;-73
2022/05/14 04:44:29;;;;;;;6.82;4.22;;;;;;;31.77;27.54;100898.41;5131653;27;20799;-73
2022/05/14 04:46:56;;;;;;;6.53;4.20;;;;;;;32.07;27.56;100908.97;5131970;27;20405;-73
2022/05/14 04:49:24;;;;;;;8.85;4.47;;;;;;;32.47;27.17;100912.66;5130225;27;20429;-73
2022/05/14 04:51:51;;;;;;;5.73;4.03;;;;;;;32.97;26.45;100903.41;5131323;27;20485;-73
2022/05/14 04:54:18;;;;;;;8.98;4.28;;;;;;;33.34;25.88;100913.09;5132037;27;20778;-73
2022/05/14 04:56:45;;;;;;;11.25;4.60;;;;;;;33.85;25.07;100910.78;5131425;27;20402;-74
2022/05/14 04:59:13;;;;;;;11.13;4.70;;;;;;;34.31;24.53;100908.50;5130226;27;20823;-74
2022/05/14 05:03:16;;;;;;;9.95;4.53;;;;;;;34.85;23.91;100905.31;5131505;27;20757;-74
2022/05/14 05:04:30;;;;;;;6.28;4.15;;;;;;;35.33;23.22;100909.66;5130262;27;20406;-73
2022/05/14 05:06:57;;;;;;;6.15;3.70;;;;;;;35.72;22.98;100912.31;5127278;27;20973;-73
2022/05/14 05:09:24;;;;;;;5.78;3.80;;;;;;;36.18;22.07;100910.47;5130445;27;20431;-74
2022/05/14 05:11:51;;;;;;;5.82;3.97;;;;;;;36.50;22.33;100908.88;5131160;27;20406;-73
2022/05/14 05:14:18;;;;;;;9.00;4.60;;;;;;;36.87;21.67;100906.19;5131160;27;20414;-73
2022/05/14 05:16:47;;;;;;;7.93;4.80;;;;;;;37.32;21.10;100904.47;5131084;27;20493;-73
2022/05/14 05:19:14;;;;;;;5.70;4.10;;;;;;;37.62;20.69;100904.19;5131433;27;20496;-73
2022/05/14 05:21:40;;;;;;;6.30;4.20;;;;;;;38.00;20.17;100912.03;5131327;27;20505;-73
2022/05/14 05:24:09;;;;;;;6.82;3.95;;;;;;;38.20;20.04;100910.22;5130954;27;20513;-73
2022/05/14 05:26:36;;;;;;;7.75;3.95;;;;;;;38.47;19.70;100907.00;5129940;27;20504;-73
2022/05/14 05:29:04;;;;;;;6.70;3.55;;;;;;;38.88;19.15;100913.16;5129904;27;20512;-73
2022/05/14 05:31:31;;;;;;;5.53;3.73;;;;;;;39.25;18.61;100918.44;5129702;27;20517;-73
2022/05/14 05:34:00;;;;;;;9.87;5.10;;;;;;;39.47;18.23;100914.19;5110238;28;20407;-73
2022/05/14 05:36:27;;;;;;;7.53;5.20;;;;;;;39.91;17.82;100909.22;5122252;27;20439;-73
2022/05/14 05:38:54;;;;;;;5.63;4.20;;;;;;;40.18;17.05;100906.56;5130392;27;20534;-73
2022/05/14 05:41:22;;;;;;;7.07;4.63;;;;;;;40.48;16.81;100909.53;5130604;27;20410;-73
2022/05/14 05:43:49;;;;;;;5.75;4.10;;;;;;;40.75;16.62;100908.75;5130869;27;20807;-73
2022/05/14 05:46:17;;;;;;;6.57;4.10;;;;;;;40.71;16.76;100908.69;5129547;27;20453;-74
2022/05/14 05:48:44;;;;;;;7.23;3.90;;;;;;;41.25;16.35;100906.78;5130231;27;20426;-73
2022/05/14 05:51:13;;;;;;;4.93;3.20;;;;;;;41.55;16.24;100903.25;5130609;27;20489;-73
2022/05/14 05:59:08;;;;;;;7.10;2.80;;;;;;;42.46;14.94;100906.66;5129054;27;20424;-73
2022/05/14 06:01:35;;;;;;;5.45;2.70;;;;;;;42.66;15.06;100915.63;5128241;27;21216;-73
2022/05/14 06:04:02;;;;;;;4.60;2.78;;;;;;;42.87;14.69;100917.75;5129315;27;20414;-73
2022/05/14 06:06:31;;;;;;;6.13;3.00;;;;;;;43.16;14.69;100915.19;5130154;28;20500;-74
2022/05/14 06:08:59;;;;;;;5.13;2.70;;;;;;;43.55;14.15;100908.28;5130511;28;20433;-74
2022/05/14 06:11:26;;;;;;;5.47;3.20;;;;;;;44.10;13.94;100908.06;5129857;28;20405;-73
2022/05/14 06:13:53;;;;;;;6.47;2.80;;;;;;;44.39;13.45;100908.94;5129813;28;20807;-74
2022/05/14 06:16:20;;;;;;;4.95;2.50;;;;;;;44.77;12.78;100914.94;5129606;28;21023;-73
2022/05/14 06:18:47;;;;;;;6.93;2.78;;;;;;;45.00;12.50;100911.75;5130161;28;20573;-73
2022/05/14 06:21:15;;;;;;;4.85;2.40;;;;;;;45.38;12.10;100919.66;5130557;28;20509;-74
2022/05/14 06:23:43;;;;;;;6.97;2.60;;;;;;;45.12;12.17;100918.91;5130270;28;20983;-74
2022/05/14 06:26:10;;;;;;;3.70;2.20;;;;;;;45.25;12.40;100912.88;5130471;28;20767;-74
2022/05/14 06:28:37;;;;;;;3.60;2.45;;;;;;;45.55;11.88;100915.22;5128871;28;20880;-74
2022/05/14 06:31:04;;;;;;;4.15;2.60;;;;;;;45.35;12.25;100914.88;5130350;28;20514;-74
2022/05/14 06:33:32;;;;;;;5.93;2.67;;;;;;;45.39;12.34;100924.06;5129668;28;20964;-74
2022/05/14 06:35:59;;;;;;;5.28;2.30;;;;;;;45.12;12.87;100918.13;5130058;28;20410;-73
2022/05/14 06:38:27;;;;;;;3.63;2.30;;;;;;;44.53;12.88;100918.53;5130562;28;20428;-74
2022/05/14 06:40:55;;;;;;;4.07;2.40;;;;;;;43.79;13.56;100923.53;5130022;28;20409;-73
2022/05/14 06:43:22;;;;;;;4.28;2.22;;;;;;;43.50;13.86;100923.38;5129314;28;20434;-73
2022/05/14 06:45:49;;;;;;;5.13;2.33;;;;;;;43.27;13.99;100930.03;5130396;28;20492;-75
2022/05/14 06:48:16;;;;;;;6.22;2.38;;;;;;;42.88;14.40;100924.16;5130277;28;20505;-74
2022/05/14 06:50:46;;;;;;;5.28;2.22;;;;;;;42.52;14.57;100923.88;5130402;28;20413;-73
2022/05/14 06:53:15;;;;;;;3.63;2.50;;;;;;;42.15;15.12;100927.44;5128197;27;20496;-74
2022/05/14 06:55:44;;;;;;;7.20;2.50;;;;;;;41.92;14.91;100933.94;5112906;28;20417;-74
2022/05/14 06:58:16;;;;;;;9.02;2.60;;;;;;;40.86;15.63;100932.00;5122193;27;21026;-74
2022/05/14 07:00:43;;;;;;;4.77;2.30;;;;;;;40.58;15.87;100929.53;5129834;27;20496;-72
2022/05/14 07:08:41;;;;;;;5.35;2.60;;;;;;;38.71;17.22;100942.84;5133100;27;21020;-73
2022/05/14 07:11:09;;;;;;;8.30;2.77;;;;;;;38.14;18.03;100947.66;5133538;27;20495;-73
2022/05/14 07:13:38;;;;;;;5.55;2.75;;;;;;;37.70;18.18;100952.25;5131467;27;20798;-73
2022/05/14 07:16:05;;;;;;;4.60;2.20;;;;;;;37.29;17.92;100952.97;5133296;27;20410;-73
2022/05/14 07:18:33;;;;;;;4.47;2.40;;;;;;;37.10;18.61;100952.72;5132068;27;20432;-73
2022/05/14 07:21:00;;;;;;;5.33;2.20;;;;;;;36.98;19.24;100956.25;5133445;27;20467;-73
2022/05/14 07:23:27;;;;;;;15.20;2.60;;;;;;;36.85;19.30;100960.19;5133175;27;20794;-72
2022/05/14 07:25:54;;;;;;;5.77;2.30;;;;;;;36.61;19.58;100956.19;5131259;27;20505;-72
2022/05/14 07:28:21;;;;;;;4.22;2.25;;;;;;;36.52;19.85;100967.31;5132132;27;20488;-72
2022/05/14 07:30:49;;;;;;;7.10;2.13;;;;;;;36.29;20.07;100966.09;5130636;27;20501;-72
2022/05/14 07:33:16;;;;;;;6.22;2.42;;;;;;;35.87;19.93;100955.03;5133445;27;20779;-72
2022/05/14 07:35:44;;;;;;;9.45;2.60;;;;;;;35.75;20.15;100969.59;5132861;27;20494;-72
2022/05/14 07:38:11;;;;;;;5.28;2.05;;;;;;;35.48;19.86;100959.81;5133076;27;20841;-72
2022/05/14 07:40:39;;;;;;;6.25;2.10;;;;;;;35.44;19.81;100964.38;5131306;27;20985;-72
2022/05/14 07:43:09;;;;;;;5.93;2.20;;;;;;;35.44;20.38;100964.38;5131438;27;20521;-72
2022/05/14 07:45:45;;;;;;;4.93;2.30;;;;;;;35.25;20.56;100965.59;5131946;27;20462;-70
2022/05/14 07:48:17;;;;;;;5.20;2.20;;;;;;;34.96;20.68;100967.16;5130354;27;20509;-71
2022/05/14 07:50:45;;;;;;;11.25;2.40;;;;;;;34.75;20.76;100971.75;5131742;27;20946;-71
2022/05/14 07:53:12;;;;;;;8.80;2.10;;;;;;;34.53;20.90;100967.25;5131927;27;20406;-71
2022/05/14 07:55:39;;;;;;;6.63;1.90;;;;;;;34.43;21.36;100971.13;5130597;27;20481;-70
2022/05/14 07:58:07;;;;;;;6.78;1.98;;;;;;;34.42;21.45;100967.56;5119144;27;20439;-71
2022/05/14 08:00:34;;;;;;;6.53;2.07;;;;;;;34.29;21.77;100976.84;5110047;28;20448;-71
2022/05/14 08:03:02;;;;;;;6.72;1.90;;;;;;;34.23;21.26;100973.44;5127254;27;20512;-71
2022/05/14 08:05:31;;;;;;;7.35;2.20;;;;;;;34.04;21.53;100981.97;5119912;27;20934;-71
2022/05/14 08:07:58;;;;;;;6.30;2.00;;;;;;;34.02;21.43;100980.69;5110095;27;20486;-70
2022/05/14 08:10:25;;;;;;;6.82;2.30;;;;;;;33.85;22.06;100981.47;5111922;27;20502;-70
2022/05/14 08:12:54;;;;;;;4.40;1.73;;;;;;;33.82;21.77;100980.19;5111094;27;20912;-71
2022/05/14 08:15:23;;;;;;;8.77;2.42;;;;;;;33.79;22.31;100977.25;5109620;28;20421;-70
2022/05/14 08:17:50;;;;;;;9.50;2.20;;;;;;;33.64;22.20;100973.00;5111425;27;20486;-70
2022/05/14 08:20:17;;;;;;;7.53;2.17;;;;;;;33.60;22.21;100980.25;5129990;27;20493;-70
2022/05/14 08:25:30;;;;;;;5.13;2.10;;;;;;;33.28;22.65;100976.78;5128025;27;20401;-70
2022/05/14 08:27:58;;;;;;;5.07;2.20;;;;;;;33.29;22.97;100978.38;5115326;27;20507;-70
2022/05/14 08:30:27;;;;;;;5.90;2.30;;;;;;;33.28;23.32;100974.03;5123980;27;20457;-71
2022/05/14 08:32:54;;;;;;;5.07;2.13;;;;;;;33.24;23.46;100979.34;5130354;27;20955;-71
2022/05/14 08:35:23;;;;;;;11.80;2.50;;;;;;;33.17;23.06;100978.16;5131256;27;20405;-71
2022/05/14 08:37:53;;;;;;;12.43;2.88;;;;;;;33.11;23.36;100972.78;5132219;27;20493;-71
2022/05/14 08:40:23;;;;;;;10.45;1.90;;;;;;;33.02;22.80;100973.88;5131271;27;20493;-70
2022/05/14 08:42:54;;;;;;;5.53;2.03;;;;;;;32.98;23.11;100967.41;5130900;27;20401;-70
2022/05/14 08:45:24;;;;;;;6.63;2.55;;;;;;;33.00;23.68;100976.13;5130834;27;20413;-70
2022/05/14 08:47:56;;;;;;;5.70;2.08;;;;;;;33.03;23.60;100962.56;5131313;27;20410;-70
2022/05/14 08:50:27;;;;;;;7.47;2.13;;;;;;;32.93;23.37;100968.34;5131344;27;20430;-70
2022/05/14 08:53:00;;;;;;;6.72;2.00;;;;;;;32.98;23.56;100973.69;5131337;27;20397;-70
2022/05/14 08:55:37;;;;;;;6.03;2.03;;;;;;;33.02;23.26;100965.63;5130032;27;20437;-71
2022/05/14 08:58:14;;;;;;;6.18;1.67;;;;;;;32.94;23.07;100976.25;5131836;27;20498;-71
2022/05/14 09:00:41;;;;;;;6.78;2.17;;;;;;;32.99;23.17;100972.56;5131092;27;20413;-70
2022/05/14 09:03:08;;;;;;;6.07;1.88;;;;;;;32.92;23.28;100972.22;5131355;27;20857;-70
2022/05/14 09:05:37;;;;;;;4.20;1.85;;;;;;;32.88;23.49;100972.03;5129956;27;20504;-70
2022/05/14 09:08:07;;;;;;;5.70;2.40;;;;;;;32.89;23.79;100975.59;5131360;27;20474;-70
2022/05/14 09:10:37;;;;;;;6.43;2.30;;;;;;;33.00;24.19;100976.94;5131147;27;20432;-71
2022/05/14 09:13:12;;;;;;;3.83;1.95;;;;;;;33.06;23.68;100970.19;5130996;27;20961;-71
2022/05/14 09:15:46;;;;;;;6.35;2.30;;;;;;;32.94;23.61;100975.44;5131224;27;20433;-71
2022/05/14 09:18:15;;;;;;;3.75;2.00;;;;;;;32.98;23.89;100983.88;5130532;27;20792;-70
2022/05/14 09:20:45;;;;;;;6.55;2.05;;;;;;;33.00;23.80;100971.44;5130401;27;20497;-71
2022/05/14 09:23:25;;;;;;;5.90;2.20;;;;;;;32.94;23.76;100969.97;5129989;27;20455;-70
2022/05/14 09:25:52;;;;;;;6.75;2.15;;;;;;;32.96;23.84;100973.19;5127118;27;20414;-70
2022/05/14 09:28:29;;;;;;;10.50;2.42;;;;;;;32.96;24.09;100986.94;5129227;27;20416;-71
2022/05/14 09:30:58;;;;;;;9.02;2.30;;;;;;;32.79;24.02;100986.81;5129996;27;20425;-71
2022/05/14 09:33:30;;;;;;;6.88;2.03;;;;;;;32.75;23.77;100989.38;5129270;27;20518;-70
2022/05/14 09:36:00;;;;;;;5.00;1.90;;;;;;;32.85;23.47;100980.09;5130577;27;20447;-71
2022/05/14 09:38:30;;;;;;;4.40;2.00;;;;;;;32.86;24.07;100978.94;5130569;27;20448;-71
2022/05/14 09:41:09;;;;;;;7.07;2.20;;;;;;;32.81;24.40;100987.31;5130381;27;20783;-71
2022/05/14 09:43:38;;;;;;;4.72;2.15;;;;;;;32.78;23.96;100980.53;5128504;27;20416;-70
2022/05/14 09:46:10;;;;;;;8.60;2.28;;;;;;;32.80;24.40;100974.72;5128892;27;20412;-71
2022/05/14 09:48:47;;;;;;;3.65;1.90;;;;;;;32.81;24.54;100981.81;5128370;27;20443;-71
2022/05/14 09:51:27;;;;;;;8.00;2.42;;;;;;;32.81;24.52;100984.56;5128651;27;20425;-71
2022/05/14 09:53:56;;;;;;;6.25;2.38;;;;;;;32.85;24.78;100988.34;5129142;27;20437;-71
2022/05/14 09:56:41;;;;;;;7.13;2.47;;;;;;;32.85;24.78;100974.59;5129194;27;20921;-71
2022/05/14 09:59:37;;;;;;;7.50;2.60;;;;;;;32.87;24.43;100981.38;5129941;27;20451;-71
2022/05/14 10:02:15;;;;;;;5.50;2.20;;;;;;;32.92;25.13;100983.19;5129966;27;20402;-71
2022/05/14 10:05:01;;;;;;;6.32;2.40;;;;;;;32.91;24.86;100984.31;5130414;27;20410;-71
2022/05/14 10:07:35;;;;;;;8.52;2.58;;;;;;;32.85;25.05;100988.34;5130906;27;20481;-71
2022/05/14 10:10:18;;;;;;;21.58;3.20;;;;;;;32.67;24.91;100990.16;5130289;28;20568;-71
2022/05/14 10:12:51;;;;;;;5.78;2.50;;;;;;;32.75;24.90;100986.63;5129863;28;20437;-71
2022/05/14 10:15:32;;;;;;;5.05;2.05;;;;;;;32.67;25.17;100984.66;5130572;28;20406;-71
2022/05/14 10:18:09;;;;;;;6.83;2.20;;;;;;;32.71;24.80;100989.19;5130393;28;20452;-71
2022/05/14 10:20:51;;;;;;;6.78;2.35;;;;;;;32.74;24.91;100983.09;5130609;28;20527;-71
2022/05/14 10:26:46;;;;;;;7.38;2.22;;;;;;;32.71;25.22;100993.88;5128414;28;20444;-71
2022/05/14 10:29:27;;;;;;;8.63;2.23;;;;;;;32.66;24.50;100988.53;5130376;27;20438;-71
2022/05/14 10:31:59;;;;;;;2.00;1.80;;;;;;;32.49;24.91;100981.75;5133216;27;20492;-71
2022/05/14 10:34:45;;;;;;;4.65;2.17;;;;;;;32.64;25.12;100988.03;5133901;27;20409;-71
2022/05/14 10:37:21;;;;;;;8.02;2.42;;;;;;;32.57;24.83;100985.69;5113722;28;20411;-71
2022/05/14 10:39:56;;;;;;;5.73;2.33;;;;;;;32.43;25.52;100980.28;5113618;28;21003;-71
2022/05/14 10:42:34;;;;;;;6.65;2.22;;;;;;;32.42;25.07;100988.81;5131594;27;20500;-71
2022/05/14 10:45:07;;;;;;;8.75;2.13;;;;;;;32.34;25.58;100980.22;5134024;27;20974;-70
2022/05/14 10:47:39;;;;;;;4.85;2.10;;;;;;;32.36;26.06;100963.44;5133651;27;20497;-70
2022/05/14 10:50:12;;;;;;;21.55;3.35;;;;;;;32.27;25.75;100968.03;5130739;27;20425;-69
2022/05/14 10:52:41;;;;;;;10.32;2.88;;;;;;;32.25;26.08;100976.59;5131328;27;20873;-70
2022/05/14 10:55:17;;;;;;;11.98;2.70;;;;;;;32.24;26.29;100976.91;5121872;27;20491;-71
2022/05/14 10:57:49;;;;;;;8.35;2.47;;;;;;;32.24;26.01;100966.72;5132517;27;20414;-70
2022/05/14 11:00:39;;;;;;;7.05;2.40;;;;;;;32.20;26.13;100977.50;5123471;27;21476;-71
2022/05/14 11:03:23;;;;;;;8.10;2.57;;;;;;;32.04;26.08;100968.00;5124588;27;20405;-71
2022/05/14 11:05:54;;;;;;;6.00;2.55;;;;;;;31.98;26.35;100960.97;5118952;27;20436;-73
2022/05/14 11:08:30;;;;;;;7.83;2.53;;;;;;;32.04;26.70;100957.03;5123168;27;20425;-72
2022/05/14 11:11:07;;;;;;;5.13;2.40;;;;;;;32.11;26.96;100960.16;5121845;27;20872;-72
2022/05/14 11:13:36;;;;;;;9.68;3.00;;;;;;;32.13;26.61;100965.34;5126937;27;20918;-70
2022/05/14 11:16:06;;;;;;;11.00;2.67;;;;;;;32.11;27.03;100962.91;5122742;27;20415;-71
2022/05/14 11:18:45;;;;;;;8.00;2.70;;;;;;;32.12;26.67;100961.78;5123805;27;20438;-71
2022/05/14 11:21:13;;;;;;;9.57;3.10;;;;;;;32.08;26.46;100959.97;5124040;27;20493;-72
2022/05/14 11:23:56;;;;;;;7.00;2.30;;;;;;;32.01;26.23;100952.94;5113940;27;20947;-72
2022/05/14 11:26:25;;;;;;;11.43;2.73;;;;;;;31.99;26.00;100949.69;5117011;27;20413;-72
2022/05/14 11:29:00;;;;;;;6.57;2.25;;;;;;;31.94;26.31;100952.56;5127995;27;20416;-72
2022/05/14 11:31:30;;;;;;;5.60;2.40;;;;;;;31.97;26.23;100948.41;5118008;27;20510;-72
2022/05/14 11:34:01;;;;;;;5.57;2.28;;;;;;;31.95;26.25;100958.88;5126631;27;20488;-72
2022/05/14 11:36:30;;;;;;;9.13;2.70;;;;;;;31.88;25.91;100953.00;5126068;27;20489;-73
2022/05/14 11:39:13;;;;;;;5.20;2.28;;;;;;;31.94;26.00;100949.00;5113089;27;20482;-72
2022/05/14 11:41:41;;;;;;;8.32;2.53;;;;;;;31.91;26.21;100949.63;5100328;27;20498;-72
2022/05/14 11:44:09;;;;;;;5.68;2.67;;;;;;;31.83;26.63;100943.75;5117039;27;20417;-72
2022/05/14 11:46:42;;;;;;;11.13;2.85;;;;;;;31.82;26.56;100942.13;5126800;27;20980;-73
2022/05/14 11:49:21;;;;;;;8.30;2.80;;;;;;;31.90;26.41;100937.84;5131442;27;20488;-73
2022/05/14 11:52:02;;;;;;;6.95;2.40;;;;;;;31.89;26.10;100940.91;5131770;27;20429;-73
2022/05/14 11:54:33;;;;;;;7.43;2.63;;;;;;;31.91;26.73;100944.97;5131879;27;20934;-73
2022/05/14 11:57:07;;;;;;;9.27;2.85;;;;;;;31.82;27.02;100933.91;5131561;27;20829;-73
2022/05/14 11:59:42;;;;;;;7.95;2.60;;;;;;;31.93;26.58;100936.44;5131837;27;20406;-72
2022/05/14 12:02:16;;;;;;;7.27;2.80;;;;;;;31.88;26.54;100937.34;5131889;27;20406;-73